Time;durP1;ratioP1;P1;durP2;ratioP2;P2;SDS_P1;SDS_P2;PMS_P1;PMS_P2;Temp;Humidity;BMP_temperature;BMP_pressure;BME280_temperature;BME280_humidity;BME280_pressure;Samples;Min_cycle;Max_cycle;Signal;HPM_P1;HPM_P2
2023/02/08 00:00:23;;;;;;;13.10;8.77;;;-1.10;99.90;;;;;;5071178;28;20228;-62
2023/02/08 00:02:50;;;;;;;12.20;7.83;;;-1.10;99.90;;;;;;5071520;28;20647;-61
2023/02/08 00:05:18;;;;;;;11.00;8.10;;;-1.00;99.90;;;;;;5071785;28;20232;-63
2023/02/08 00:07:46;;;;;;;11.93;8.30;;;-1.00;99.90;;;;;;5071394;28;20696;-61
2023/02/08 00:10:13;;;;;;;13.10;8.03;;;-1.10;99.90;;;;;;5071790;28;20292;-61
2023/02/08 00:12:39;;;;;;;12.87;7.67;;;-1.10;99.90;;;;;;5071743;28;20201;-61
2023/02/08 00:15:06;;;;;;;13.43;8.93;;;-1.10;99.90;;;;;;5071286;28;20247;-61
2023/02/08 00:17:33;;;;;;;15.90;8.80;;;-1.10;99.90;;;;;;5071927;28;20258;-60
2023/02/08 00:20:00;;;;;;;13.53;9.00;;;-1.20;99.90;;;;;;5071478;28;20258;-61
2023/02/08 00:22:27;;;;;;;14.03;8.57;;;-1.30;99.90;;;;;;5071728;28;20220;-61
2023/02/08 00:24:55;;;;;;;14.13;8.70;;;-1.40;99.90;;;;;;5071729;28;20229;-60
2023/02/08 00:27:21;;;;;;;12.00;8.47;;;-1.60;99.90;;;;;;5071937;28;20601;-61
2023/02/08 00:29:48;;;;;;;15.27;8.77;;;-1.80;99.90;;;;;;5071671;28;20208;-62
2023/02/08 00:32:15;;;;;;;13.33;9.27;;;-1.80;99.90;;;;;;5073148;28;20204;-62
2023/02/08 00:34:42;;;;;;;11.13;8.27;;;-1.80;99.90;;;;;;5084279;28;20205;-60
2023/02/08 00:37:09;;;;;;;13.93;8.90;;;-1.80;99.90;;;;;;5084899;28;20204;-61
2023/02/08 00:39:36;;;;;;;13.47;8.20;;;-1.90;99.90;;;;;;5084560;28;20213;-60
2023/02/08 00:42:04;;;;;;;13.40;8.33;;;-1.80;99.90;;;;;;5083030;28;20570;-61
2023/02/08 00:44:31;;;;;;;13.83;8.57;;;-1.80;99.90;;;;;;5080385;28;20232;-61
2023/02/08 00:46:58;;;;;;;13.43;8.00;;;-1.80;99.90;;;;;;5072030;28;20220;-63
2023/02/08 00:49:24;;;;;;;11.47;8.03;;;-1.80;99.90;;;;;;5071705;28;20212;-61
2023/02/08 00:51:51;;;;;;;10.17;7.17;;;-1.80;99.90;;;;;;5071606;28;20223;-61
2023/02/08 00:54:19;;;;;;;13.40;8.17;;;-1.80;99.90;;;;;;5071657;28;20212;-61
2023/02/08 00:56:46;;;;;;;11.27;7.53;;;-1.90;99.90;;;;;;5071168;28;20290;-60
2023/02/08 00:59:15;;;;;;;10.30;7.60;;;-1.90;99.90;;;;;;5071528;28;20205;-61
2023/02/08 01:01:42;;;;;;;14.13;7.17;;;-1.90;99.90;;;;;;5071196;28;20665;-60
2023/02/08 01:04:09;;;;;;;11.40;7.47;;;-1.90;99.90;;;;;;5071397;28;20314;-62
2023/02/08 01:06:35;;;;;;;9.80;7.00;;;-1.90;99.90;;;;;;5071235;28;20220;-60
2023/02/08 01:09:02;;;;;;;11.83;7.33;;;-2.00;99.90;;;;;;5071623;28;20251;-60
2023/02/08 01:11:29;;;;;;;11.23;7.47;;;-2.00;99.90;;;;;;5071639;28;20292;-60
2023/02/08 01:13:57;;;;;;;10.13;7.10;;;-2.00;99.90;;;;;;5075330;28;20618;-60
2023/02/08 01:16:27;;;;;;;10.70;7.80;;;-1.90;99.90;;;;;;5075156;28;20221;-61
2023/02/08 01:18:56;;;;;;;11.60;7.30;;;-1.90;99.90;;;;;;5075171;28;20668;-60
2023/02/08 01:21:25;;;;;;;10.33;7.13;;;-1.80;99.90;;;;;;5074708;28;20213;-62
2023/02/08 01:23:52;;;;;;;11.70;7.53;;;-1.80;99.90;;;;;;5075085;28;20220;-61
2023/02/08 01:26:20;;;;;;;13.77;7.83;;;-1.90;99.90;;;;;;5075264;28;20270;-59
2023/02/08 01:28:47;;;;;;;12.93;8.27;;;-1.80;99.90;;;;;;5075234;28;20574;-61
2023/02/08 01:31:17;;;;;;;12.83;7.23;;;-1.80;99.90;;;;;;5074599;28;20208;-60
2023/02/08 01:33:45;;;;;;;11.87;7.87;;;-1.80;99.90;;;;;;5074263;28;20209;-60
2023/02/08 01:36:12;;;;;;;14.37;7.97;;;-1.90;99.90;;;;;;5074067;28;20240;-59
2023/02/08 01:38:39;;;;;;;11.37;8.10;;;-1.90;99.90;;;;;;5074897;28;20215;-60
2023/02/08 01:41:08;;;;;;;12.27;8.10;;;-2.00;99.90;;;;;;5074156;28;20216;-61
2023/02/08 01:43:55;;;;;;;11.17;7.80;;;-2.00;99.90;;;;;;5074227;28;20205;-62
2023/02/08 01:46:22;;;;;;;14.10;7.90;;;-2.10;99.90;;;;;;5074083;28;20661;-60
2023/02/08 01:48:51;;;;;;;12.47;7.93;;;-2.20;99.90;;;;;;5074506;28;20209;-61
2023/02/08 01:51:21;;;;;;;12.13;7.53;;;-2.30;99.90;;;;;;5074396;28;20216;-60
2023/02/08 01:53:50;;;;;;;11.47;7.23;;;-1.90;99.90;;;;;;5074278;28;20231;-67
2023/02/08 01:56:21;;;;;;;12.30;7.93;;;-2.40;99.90;;;;;;5074342;28;20221;-60
2023/02/08 01:58:51;;;;;;;10.90;7.67;;;-2.50;99.90;;;;;;5074441;28;20216;-62
2023/02/08 02:01:18;;;;;;;14.07;8.20;;;-2.40;99.90;;;;;;5074302;28;20524;-60
2023/02/08 02:03:45;;;;;;;12.77;7.97;;;-2.40;99.90;;;;;;5074136;28;20641;-61
2023/02/08 02:06:22;;;;;;;13.57;8.50;;;-2.50;99.90;;;;;;5073995;28;20228;-60
2023/02/08 02:08:53;;;;;;;14.50;7.73;;;-2.50;99.90;;;;;;5074181;28;20212;-60
2023/02/08 02:11:20;;;;;;;13.37;8.20;;;-2.50;99.90;;;;;;5073945;28;20213;-62
2023/02/08 02:13:49;;;;;;;10.73;7.53;;;-2.70;99.90;;;;;;5073886;28;20205;-61
2023/02/08 02:16:16;;;;;;;12.27;8.03;;;-2.80;99.90;;;;;;5074226;28;20221;-64
2023/02/08 02:18:43;;;;;;;14.33;8.40;;;-2.90;99.90;;;;;;5073982;28;20323;-61
2023/02/08 02:21:27;;;;;;;14.73;8.33;;;-3.00;99.90;;;;;;5073708;28;20209;-60
2023/02/08 02:24:17;;;;;;;11.87;7.90;;;-3.00;99.90;;;;;;5073286;28;20617;-60
2023/02/08 02:27:12;;;;;;;10.80;7.67;;;-3.00;99.90;;;;;;5073686;28;20233;-61
2023/02/08 02:30:17;;;;;;;11.70;7.47;;;-3.00;99.90;;;;;;5073752;28;20208;-61
2023/02/08 02:32:59;;;;;;;12.23;8.07;;;-3.00;99.90;;;;;;5048364;28;20204;-62
2023/02/08 02:35:36;;;;;;;13.93;7.73;;;-3.10;99.90;;;;;;5107836;22;20292;-71
2023/02/08 02:38:11;;;;;;;11.00;7.40;;;-3.10;99.90;;;;;;5105061;28;20196;-69
2023/02/08 02:40:49;;;;;;;12.30;8.10;;;-3.20;99.90;;;;;;5094126;28;20688;-69
2023/02/08 02:46:13;;;;;;;11.87;8.00;;;-3.20;99.90;;;;;;5094708;28;20234;-70
2023/02/08 02:48:48;;;;;;;15.30;7.97;;;-3.20;99.90;;;;;;5094548;28;20215;-69
2023/02/08 02:51:20;;;;;;;13.27;8.67;;;-3.20;99.90;;;;;;5094093;28;20470;-68
2023/02/08 02:53:52;;;;;;;14.67;7.93;;;-3.20;99.90;;;;;;5094940;28;20412;-70
2023/02/08 02:56:23;;;;;;;13.60;8.80;;;-3.20;99.90;;;;;;5093996;28;20596;-68
2023/02/08 02:58:52;;;;;;;14.60;8.40;;;-3.20;99.90;;;;;;5094379;28;20690;-70
2023/02/08 03:01:24;;;;;;;16.17;8.90;;;-3.30;99.90;;;;;;5094013;28;20204;-70
2023/02/08 03:03:54;;;;;;;13.20;8.10;;;-3.30;99.90;;;;;;5093720;28;20212;-70
2023/02/08 03:06:30;;;;;;;11.13;7.50;;;-3.20;99.90;;;;;;5093924;28;20235;-70
2023/02/08 03:09:28;;;;;;;11.77;7.60;;;-3.20;99.90;;;;;;5094158;28;20250;-70
2023/02/08 03:12:00;;;;;;;15.80;8.37;;;-3.10;99.90;;;;;;5092670;28;20204;-70
2023/02/08 03:14:37;;;;;;;11.93;8.27;;;-3.10;99.90;;;;;;5093447;28;20636;-71
2023/02/08 03:17:20;;;;;;;11.77;7.87;;;-3.10;99.90;;;;;;5093522;28;20610;-70
2023/02/08 03:19:57;;;;;;;13.33;7.87;;;-3.10;99.90;;;;;;5093839;28;20663;-70
2023/02/08 03:22:33;;;;;;;12.57;7.57;;;-3.10;99.90;;;;;;5092947;28;20204;-69
2023/02/08 03:25:02;;;;;;;12.07;8.17;;;-3.10;99.90;;;;;;5093579;28;20255;-70
2023/02/08 03:27:33;;;;;;;11.90;7.87;;;-3.10;99.90;;;;;;5093228;28;20671;-69
2023/02/08 03:30:05;;;;;;;11.17;7.93;;;-3.10;99.90;;;;;;5093469;28;20247;-69
2023/02/08 03:32:38;;;;;;;14.67;9.03;;;-3.00;99.90;;;;;;5093133;28;20242;-69
2023/02/08 03:35:11;;;;;;;12.70;8.30;;;-3.10;99.90;;;;;;5091978;28;20223;-69
2023/02/08 03:37:42;;;;;;;11.57;8.27;;;-3.10;99.90;;;;;;5093294;28;20215;-70
2023/02/08 03:40:13;;;;;;;12.00;7.87;;;-3.10;99.90;;;;;;5092871;28;20219;-69
2023/02/08 03:42:41;;;;;;;15.70;8.73;;;-3.20;99.90;;;;;;5093083;28;20208;-69
2023/02/08 03:45:15;;;;;;;15.27;7.73;;;-3.10;99.90;;;;;;5092830;28;20231;-68
2023/02/08 03:47:45;;;;;;;12.53;8.27;;;-3.10;99.90;;;;;;5092858;28;20690;-69
2023/02/08 03:50:16;;;;;;;12.20;7.67;;;-3.00;99.90;;;;;;5092664;28;20215;-69
2023/02/08 03:52:46;;;;;;;13.57;8.17;;;-3.00;99.90;;;;;;5093253;28;20237;-69
2023/02/08 03:55:18;;;;;;;18.13;7.47;;;-3.00;99.90;;;;;;5092675;28;20613;-69
2023/02/08 03:57:49;;;;;;;18.37;7.93;;;-3.00;99.90;;;;;;5092834;28;20204;-69
2023/02/08 04:00:18;;;;;;;11.23;7.60;;;-2.90;99.90;;;;;;5092446;28;20237;-69
2023/02/08 04:02:51;;;;;;;11.13;7.37;;;-3.00;99.90;;;;;;5092565;28;20705;-67
2023/02/08 04:05:21;;;;;;;11.30;7.77;;;-2.90;99.90;;;;;;5092512;28;20223;-69
2023/02/08 04:07:48;;;;;;;11.10;7.57;;;-3.00;99.90;;;;;;5092341;28;20205;-69
2023/02/08 04:10:15;;;;;;;13.37;8.17;;;-3.00;99.90;;;;;;5092290;28;20680;-69
2023/02/08 04:12:42;;;;;;;12.80;8.63;;;-2.90;99.90;;;;;;5092381;28;20204;-70
2023/02/08 04:15:09;;;;;;;30.83;19.47;;;-2.90;99.90;;;;;;5092557;28;20228;-70
2023/02/08 04:17:36;;;;;;;16.40;9.73;;;-3.00;99.90;;;;;;5092414;28;20211;-70
2023/02/08 04:20:03;;;;;;;14.27;8.27;;;-2.90;99.90;;;;;;5092591;28;20227;-70
2023/02/08 04:22:32;;;;;;;14.50;8.77;;;-2.90;99.90;;;;;;5092635;28;20223;-70
2023/02/08 04:24:59;;;;;;;12.47;7.17;;;-2.90;99.90;;;;;;5092180;28;20220;-70
2023/02/08 04:27:26;;;;;;;8.37;6.50;;;-2.90;99.90;;;;;;5092978;28;20205;-70
2023/02/08 04:29:53;;;;;;;10.53;6.83;;;-2.80;99.90;;;;;;5092529;28;20208;-70
2023/02/08 04:32:20;;;;;;;10.67;7.30;;;-2.90;99.90;;;;;;5092096;28;20647;-70
2023/02/08 04:34:46;;;;;;;12.33;6.87;;;-2.90;99.90;;;;;;5092264;28;20210;-70
2023/02/08 04:37:13;;;;;;;9.77;6.90;;;-2.90;99.90;;;;;;5091946;28;20211;-70
2023/02/08 04:39:41;;;;;;;11.37;7.40;;;-2.90;99.90;;;;;;5091933;28;20212;-69
2023/02/08 04:42:08;;;;;;;11.50;7.53;;;-2.90;99.90;;;;;;5091928;28;20203;-69
2023/02/08 04:44:35;;;;;;;33.50;19.13;;;-2.90;99.90;;;;;;5092442;28;20227;-69
2023/02/08 04:47:02;;;;;;;12.20;7.23;;;-2.90;99.90;;;;;;5092160;28;20220;-69
2023/02/08 04:49:28;;;;;;;13.30;7.10;;;-3.00;99.90;;;;;;5092774;28;20204;-70
2023/02/08 04:51:55;;;;;;;14.00;7.43;;;-3.00;99.90;;;;;;5092127;28;20585;-70
2023/02/08 04:54:22;;;;;;;10.77;7.20;;;-3.00;99.90;;;;;;5092180;28;20208;-69
2023/02/08 04:56:51;;;;;;;12.60;7.30;;;-3.00;99.90;;;;;;5092268;28;20277;-70
2023/02/08 04:59:17;;;;;;;13.73;7.17;;;-3.00;99.90;;;;;;5092148;28;20204;-70
2023/02/08 05:01:44;;;;;;;16.10;7.87;;;-3.00;99.90;;;;;;5091737;28;20237;-70
2023/02/08 05:04:11;;;;;;;16.23;9.07;;;-3.00;99.90;;;;;;5091726;28;20581;-70
2023/02/08 05:06:38;;;;;;;13.90;9.00;;;-3.00;99.90;;;;;;5092060;28;20725;-70
2023/02/08 05:09:07;;;;;;;15.27;8.80;;;-3.00;99.90;;;;;;5092388;28;20216;-71
2023/02/08 05:11:34;;;;;;;16.63;10.10;;;-3.00;99.90;;;;;;5092013;28;20691;-70
2023/02/08 05:14:03;;;;;;;18.87;10.27;;;-3.10;99.90;;;;;;5092113;28;20204;-70
2023/02/08 05:16:30;;;;;;;15.83;9.57;;;-3.10;99.90;;;;;;5092027;28;20217;-70
2023/02/08 05:18:57;;;;;;;16.53;9.47;;;-3.10;99.90;;;;;;5091896;28;20211;-69
2023/02/08 05:21:24;;;;;;;12.60;8.20;;;-3.10;99.90;;;;;;5091521;28;20230;-70
2023/02/08 05:23:51;;;;;;;16.23;9.40;;;-3.10;99.90;;;;;;5092063;28;20208;-70
2023/02/08 05:26:18;;;;;;;13.53;8.33;;;-3.10;99.90;;;;;;5091768;28;20259;-70
2023/02/08 05:28:45;;;;;;;18.93;9.90;;;-3.10;99.90;;;;;;5092060;28;20638;-70
2023/02/08 05:31:17;;;;;;;13.53;8.93;;;-3.10;99.90;;;;;;5091462;28;20699;-70
2023/02/08 05:33:43;;;;;;;16.60;10.33;;;-3.10;99.90;;;;;;5091512;28;20207;-69
2023/02/08 05:36:10;;;;;;;14.33;9.10;;;-3.10;99.90;;;;;;5091436;28;20243;-70
2023/02/08 05:38:37;;;;;;;14.90;9.57;;;-3.10;99.90;;;;;;5091759;28;20212;-69
2023/02/08 05:41:05;;;;;;;14.37;8.50;;;-3.10;99.90;;;;;;5091637;28;20208;-70
2023/02/08 05:43:31;;;;;;;13.97;8.83;;;-3.10;99.90;;;;;;5091829;28;20203;-70
2023/02/08 05:45:58;;;;;;;16.13;9.43;;;-3.10;99.90;;;;;;5091665;28;20235;-70
2023/02/08 05:48:26;;;;;;;22.73;11.93;;;-3.10;99.90;;;;;;5091755;28;20212;-70
2023/02/08 05:50:53;;;;;;;15.53;9.73;;;-3.10;99.90;;;;;;5091440;28;20208;-70
2023/02/08 05:53:20;;;;;;;16.37;10.07;;;-3.20;99.90;;;;;;5091563;28;20733;-69
2023/02/08 05:55:48;;;;;;;21.93;12.47;;;-3.10;99.90;;;;;;5091382;28;20253;-70
2023/02/08 05:58:15;;;;;;;22.30;11.73;;;-3.20;99.90;;;;;;5093198;28;20249;-69
2023/02/08 06:00:42;;;;;;;12.23;8.30;;;-3.20;99.90;;;;;;5095605;28;20254;-69
2023/02/08 06:03:08;;;;;;;14.10;8.33;;;-3.20;99.90;;;;;;5095258;28;20210;-69
2023/02/08 06:05:37;;;;;;;14.33;8.73;;;-3.20;99.90;;;;;;5094938;28;20323;-70
2023/02/08 06:08:04;;;;;;;13.73;8.70;;;-3.20;99.90;;;;;;5095462;28;20208;-69
2023/02/08 06:10:31;;;;;;;13.97;7.97;;;-3.30;99.90;;;;;;5095629;28;20223;-70
2023/02/08 06:12:58;;;;;;;13.27;8.60;;;-3.30;99.90;;;;;;5096250;28;20215;-71
2023/02/08 06:15:25;;;;;;;15.13;9.93;;;-3.30;99.90;;;;;;5095546;28;20221;-69
2023/02/08 06:17:51;;;;;;;14.60;10.23;;;-3.30;99.90;;;;;;5095801;28;20211;-70
2023/02/08 06:20:18;;;;;;;19.87;11.53;;;-2.70;99.90;;;;;;5095592;28;20212;-70
2023/02/08 06:22:46;;;;;;;16.20;10.33;;;-3.30;99.90;;;;;;5095288;28;20292;-69
2023/02/08 06:25:13;;;;;;;11.87;8.23;;;-3.30;99.90;;;;;;5094949;28;20229;-69
2023/02/08 06:27:40;;;;;;;33.17;15.53;;;-3.30;99.90;;;;;;5094614;28;20550;-70
2023/02/08 06:30:07;;;;;;;16.93;9.87;;;-3.30;99.90;;;;;;5094123;28;20200;-69
2023/02/08 06:32:34;;;;;;;12.50;7.27;;;-3.30;99.90;;;;;;5094159;28;20204;-70
2023/02/08 06:35:00;;;;;;;13.57;8.80;;;-3.30;99.90;;;;;;5093859;28;20299;-69
2023/02/08 06:37:27;;;;;;;14.13;8.63;;;-3.30;99.90;;;;;;5094139;28;20618;-70
2023/02/08 06:39:55;;;;;;;12.73;8.47;;;-3.30;99.90;;;;;;5093935;28;20666;-69
2023/02/08 06:42:22;;;;;;;17.27;10.70;;;-3.30;99.90;;;;;;5093593;28;20208;-70
2023/02/08 06:44:49;;;;;;;13.63;8.67;;;-3.20;99.90;;;;;;5093682;28;20299;-70
2023/02/08 06:47:16;;;;;;;14.27;8.03;;;-3.20;99.90;;;;;;5093896;28;20345;-70
2023/02/08 06:49:42;;;;;;;20.17;11.83;;;-3.20;99.90;;;;;;5093707;28;20200;-70
2023/02/08 06:52:09;;;;;;;14.63;8.83;;;-3.10;99.90;;;;;;5093513;28;20200;-70
2023/02/08 06:54:36;;;;;;;12.63;7.83;;;-3.10;99.90;;;;;;5094509;28;20636;-70
2023/02/08 06:57:04;;;;;;;10.17;7.13;;;-3.10;99.90;;;;;;5093481;28;20228;-71
2023/02/08 06:59:31;;;;;;;20.47;12.73;;;-3.00;99.90;;;;;;5093593;28;20240;-69
2023/02/08 07:01:58;;;;;;;15.13;8.70;;;-3.00;99.90;;;;;;5093548;28;20208;-70
2023/02/08 07:04:24;;;;;;;13.13;8.33;;;-2.90;99.90;;;;;;5093660;28;20208;-70
2023/02/08 07:06:51;;;;;;;11.03;7.50;;;-2.90;99.90;;;;;;5093029;28;20621;-69
2023/02/08 07:09:18;;;;;;;12.17;7.57;;;-2.80;99.90;;;;;;5092529;28;20211;-70
2023/02/08 07:11:48;;;;;;;11.70;8.13;;;-2.30;99.90;;;;;;5092941;28;20208;-71
2023/02/08 07:14:16;;;;;;;12.83;8.47;;;-2.70;99.90;;;;;;5093676;28;20212;-70
2023/02/08 07:16:43;;;;;;;13.73;7.00;;;-2.70;99.90;;;;;;5092925;28;20364;-70
2023/02/08 07:19:09;;;;;;;13.77;8.93;;;-2.60;99.90;;;;;;5093231;28;20200;-69
2023/02/08 07:21:36;;;;;;;14.10;9.17;;;-2.30;99.90;;;;;;5093404;28;20208;-70
2023/02/08 07:24:03;;;;;;;13.90;8.50;;;-2.00;99.90;;;;;;5093031;28;20231;-70
2023/02/08 07:26:30;;;;;;;23.10;11.90;;;-1.80;99.90;;;;;;5092683;28;20283;-70
2023/02/08 07:28:58;;;;;;;16.00;9.23;;;-1.70;99.90;;;;;;5093116;28;20208;-70
2023/02/08 07:31:26;;;;;;;18.73;9.03;;;-1.70;99.90;;;;;;5092737;28;20210;-70
2023/02/08 07:33:53;;;;;;;15.10;9.10;;;-1.70;99.90;;;;;;5092747;28;20204;-70
2023/02/08 07:36:20;;;;;;;14.33;8.80;;;-1.70;99.90;;;;;;5092526;28;20228;-70
2023/02/08 07:38:47;;;;;;;15.53;9.03;;;-1.80;99.90;;;;;;5092663;28;20208;-70
2023/02/08 07:41:14;;;;;;;14.83;9.47;;;-1.80;99.90;;;;;;5092614;28;20215;-70
2023/02/08 07:43:41;;;;;;;19.03;11.20;;;-1.90;99.90;;;;;;5092786;28;20208;-70
2023/02/08 07:46:09;;;;;;;22.17;12.87;;;-1.80;99.90;;;;;;5092738;28;20231;-70
2023/02/08 07:48:38;;;;;;;21.57;8.80;;;-1.80;99.90;;;;;;5092376;28;20226;-70
2023/02/08 07:51:05;;;;;;;23.03;9.47;;;-1.70;99.90;;;;;;5092192;28;20266;-69
2023/02/08 07:53:32;;;;;;;18.37;8.60;;;-1.60;99.90;;;;;;5092780;28;20264;-70
2023/02/08 07:55:59;;;;;;;18.63;9.73;;;-1.50;99.90;;;;;;5092620;28;20580;-70
2023/02/08 07:58:26;;;;;;;21.43;10.50;;;-1.40;99.90;;;;;;5092383;28;20208;-70
2023/02/08 08:00:53;;;;;;;17.13;9.27;;;-1.30;99.90;;;;;;5092232;28;20265;-70
2023/02/08 08:03:20;;;;;;;17.57;9.67;;;-1.30;99.90;;;;;;5092298;28;20211;-71
2023/02/08 08:05:49;;;;;;;16.43;8.93;;;-1.20;99.90;;;;;;5092149;28;20354;-69
2023/02/08 08:08:15;;;;;;;20.70;10.20;;;-1.10;99.90;;;;;;5093253;28;20693;-68
2023/02/08 08:10:43;;;;;;;18.93;9.63;;;-0.90;99.90;;;;;;5093065;28;20215;-69
2023/02/08 08:13:10;;;;;;;21.53;9.53;;;-0.80;99.90;;;;;;5092801;28;20208;-68
2023/02/08 08:15:37;;;;;;;19.57;9.60;;;-0.70;99.90;;;;;;5092604;28;20796;-67
2023/02/08 08:18:04;;;;;;;20.57;9.23;;;-0.60;99.90;;;;;;5092199;28;20629;-68
2023/02/08 08:20:30;;;;;;;16.27;9.40;;;-0.50;99.90;;;;;;5091665;28;20208;-68
2023/02/08 08:23:00;;;;;;;17.80;9.43;;;-0.40;99.90;;;;;;5092163;28;20211;-65
2023/02/08 08:25:27;;;;;;;18.40;8.70;;;-0.30;99.90;;;;;;5092568;28;20306;-70
2023/02/08 08:27:54;;;;;;;13.53;8.93;;;-0.30;99.90;;;;;;5091866;28;20299;-66
2023/02/08 08:30:20;;;;;;;19.53;10.17;;;-0.20;99.90;;;;;;5091725;28;20215;-65
2023/02/08 08:32:47;;;;;;;18.50;10.60;;;-0.10;99.90;;;;;;5091500;28;20208;-65
2023/02/08 08:35:14;;;;;;;19.47;8.90;;;0.00;99.90;;;;;;5091591;28;20743;-65
2023/02/08 08:37:41;;;;;;;23.73;9.80;;;0.00;99.90;;;;;;5091479;28;20699;-65
2023/02/08 08:40:10;;;;;;;18.17;9.10;;;-0.10;99.90;;;;;;5091655;28;20314;-65
2023/02/08 08:42:38;;;;;;;16.47;9.00;;;0.00;99.90;;;;;;5091174;28;20258;-65
2023/02/08 08:45:06;;;;;;;22.80;9.77;;;0.10;99.90;;;;;;5091338;28;20659;-67
2023/02/08 08:47:33;;;;;;;18.73;9.57;;;0.30;99.90;;;;;;5091097;28;20660;-66
2023/02/08 08:49:59;;;;;;;16.90;8.77;;;0.40;99.90;;;;;;5091973;28;20285;-66
2023/02/08 08:52:26;;;;;;;19.27;9.63;;;0.60;99.90;;;;;;5091622;28;20208;-66
2023/02/08 08:54:53;;;;;;;23.40;12.30;;;0.80;99.90;;;;;;5091759;28;20212;-66
2023/02/08 08:57:21;;;;;;;18.13;9.30;;;1.00;99.90;;;;;;5091290;28;20249;-66
2023/02/08 08:59:47;;;;;;;14.93;8.70;;;1.10;99.90;;;;;;5091699;28;20209;-67
2023/02/08 09:02:15;;;;;;;15.70;10.03;;;1.20;99.90;;;;;;5090945;28;20347;-66
2023/02/08 09:04:41;;;;;;;14.20;9.43;;;1.40;99.90;;;;;;5091200;28;20204;-67
2023/02/08 09:07:09;;;;;;;19.00;9.50;;;1.50;99.90;;;;;;5090992;28;20228;-66
2023/02/08 09:09:37;;;;;;;14.63;9.03;;;1.60;99.90;;;;;;5091316;28;20207;-66
2023/02/08 09:12:04;;;;;;;16.63;10.70;;;1.80;99.90;;;;;;5091232;28;20211;-67
2023/02/08 09:14:32;;;;;;;20.53;10.17;;;1.80;99.90;;;;;;5091709;28;20200;-67
2023/02/08 09:16:59;;;;;;;17.50;10.50;;;1.90;99.90;;;;;;5091079;28;20227;-66
2023/02/08 09:19:26;;;;;;;16.03;10.23;;;2.10;99.90;;;;;;5091519;28;20261;-67
2023/02/08 09:21:53;;;;;;;15.93;10.33;;;2.20;99.90;;;;;;5090882;28;20656;-67
2023/02/08 09:24:20;;;;;;;16.47;9.20;;;2.30;99.90;;;;;;5091371;28;20208;-67
2023/02/08 09:26:46;;;;;;;15.47;9.33;;;2.40;99.90;;;;;;5091106;28;20224;-65
2023/02/08 09:29:13;;;;;;;15.97;9.97;;;2.30;99.90;;;;;;5091309;28;20234;-67
2023/02/08 09:31:41;;;;;;;14.77;9.13;;;2.30;99.90;;;;;;5091346;28;20208;-67
2023/02/08 09:34:09;;;;;;;16.00;9.33;;;2.30;99.90;;;;;;5094983;28;20713;-67
2023/02/08 09:36:38;;;;;;;15.57;8.77;;;2.40;99.90;;;;;;5095075;28;20228;-67
2023/02/08 09:39:08;;;;;;;12.43;8.43;;;2.50;99.90;;;;;;5095311;28;20622;-67
2023/02/08 09:41:48;;;;;;;13.23;9.03;;;2.70;99.90;;;;;;5094760;28;20642;-69
2023/02/08 09:44:22;;;;;;;15.80;9.20;;;2.70;99.90;;;;;;5082491;28;20233;-67
2023/02/08 09:46:58;;;;;;;13.93;9.00;;;2.90;99.90;;;;;;5074093;28;20227;-68
2023/02/08 09:49:30;;;;;;;13.30;8.70;;;3.10;99.90;;;;;;5090429;28;20200;-67
2023/02/08 09:52:01;;;;;;;12.43;8.67;;;3.20;99.90;;;;;;5094089;28;20204;-66
2023/02/08 09:54:32;;;;;;;11.10;8.37;;;3.30;99.70;;;;;;5094042;28;20204;-67
2023/02/08 09:57:02;;;;;;;10.93;7.87;;;3.20;99.30;;;;;;5094389;28;20247;-68
2023/02/08 09:59:32;;;;;;;11.47;8.47;;;3.30;99.20;;;;;;5094008;28;20211;-67
2023/02/08 10:02:10;;;;;;;16.77;9.40;;;3.40;98.90;;;;;;5093743;28;20204;-67
2023/02/08 10:04:48;;;;;;;14.23;8.13;;;3.50;99.20;;;;;;5095439;28;20204;-68
2023/02/08 10:07:15;;;;;;;14.27;8.93;;;3.50;98.70;;;;;;5093621;28;20236;-65
2023/02/08 10:09:42;;;;;;;15.93;9.17;;;3.70;98.60;;;;;;5093917;28;20283;-66
2023/02/08 10:12:20;;;;;;;13.17;8.30;;;3.90;98.40;;;;;;5093726;28;20207;-66
2023/02/08 10:14:58;;;;;;;12.80;8.27;;;4.00;98.00;;;;;;5093917;28;20295;-67
2023/02/08 10:17:57;;;;;;;11.97;8.03;;;4.20;97.80;;;;;;5093849;28;20216;-67
2023/02/08 10:20:33;;;;;;;12.47;8.30;;;4.40;97.10;;;;;;5091694;28;20567;-67
2023/02/08 10:23:07;;;;;;;13.53;8.23;;;4.30;97.00;;;;;;5093161;28;20212;-67
2023/02/08 10:25:46;;;;;;;9.23;7.17;;;4.30;97.00;;;;;;5093146;28;20234;-67
2023/02/08 10:28:26;;;;;;;11.67;7.70;;;4.20;96.60;;;;;;5093532;28;20314;-65
2023/02/08 10:31:02;;;;;;;10.73;6.73;;;4.20;96.30;;;;;;5092879;28;20432;-67
2023/02/08 10:33:35;;;;;;;8.73;6.37;;;4.20;96.30;;;;;;5093507;28;20540;-67
2023/02/08 10:36:12;;;;;;;11.30;6.63;;;4.10;96.30;;;;;;5093504;28;20227;-68
2023/02/08 10:38:40;;;;;;;10.93;6.50;;;4.00;96.50;;;;;;5093436;28;20230;-67
2023/02/08 10:41:07;;;;;;;10.87;6.40;;;3.90;96.50;;;;;;5093099;28;20280;-67
2023/02/08 10:43:40;;;;;;;10.13;6.50;;;3.90;96.20;;;;;;5092723;28;20551;-69
2023/02/08 10:46:14;;;;;;;10.90;6.50;;;4.00;96.40;;;;;;5092901;28;20607;-67
2023/02/08 10:48:52;;;;;;;9.83;6.77;;;4.20;96.30;;;;;;5093222;28;20582;-67
2023/02/08 10:51:21;;;;;;;8.20;5.80;;;4.30;96.50;;;;;;5093955;28;20559;-69
2023/02/08 10:53:48;;;;;;;10.17;6.80;;;4.40;95.90;;;;;;5092807;28;20564;-68
2023/02/08 10:56:39;;;;;;;10.97;6.10;;;4.50;96.20;;;;;;5092803;28;20224;-68
2023/02/08 10:59:14;;;;;;;9.13;6.23;;;4.60;96.20;;;;;;5091257;28;20205;-68
2023/02/08 11:01:41;;;;;;;8.77;6.10;;;4.70;96.00;;;;;;5093552;28;20204;-69
2023/02/08 11:04:10;;;;;;;10.37;6.33;;;4.80;95.50;;;;;;5094000;28;20212;-68
2023/02/08 11:06:40;;;;;;;9.67;6.03;;;4.90;95.40;;;;;;5093297;28;20690;-69
2023/02/08 11:09:07;;;;;;;9.37;5.60;;;4.90;95.10;;;;;;5093798;28;20205;-68
2023/02/08 11:11:36;;;;;;;8.13;5.10;;;4.90;95.00;;;;;;5093414;28;20223;-68
2023/02/08 11:14:08;;;;;;;9.43;5.57;;;4.90;94.20;;;;;;5093690;28;20580;-67
2023/02/08 11:16:37;;;;;;;8.33;5.43;;;4.90;94.30;;;;;;5093332;28;20298;-68
2023/02/08 11:19:06;;;;;;;8.63;5.63;;;4.80;94.50;;;;;;5093347;28;20208;-68
2023/02/08 11:21:36;;;;;;;8.47;5.27;;;4.80;94.60;;;;;;5093192;28;20201;-68
2023/02/08 11:24:26;;;;;;;7.13;5.13;;;4.90;94.60;;;;;;5093245;28;20632;-67
2023/02/08 11:26:55;;;;;;;7.80;4.93;;;4.90;94.10;;;;;;5093186;28;20315;-68
2023/02/08 11:29:23;;;;;;;7.13;4.50;;;4.80;93.90;;;;;;5093219;28;20223;-68
2023/02/08 11:32:01;;;;;;;9.10;4.90;;;4.90;93.90;;;;;;5092925;28;20208;-66
2023/02/08 11:34:31;;;;;;;6.10;4.53;;;5.00;94.00;;;;;;5092937;28;20227;-66
2023/02/08 11:36:59;;;;;;;7.60;4.63;;;5.00;93.50;;;;;;5092871;28;20231;-68
2023/02/08 11:39:33;;;;;;;7.30;4.93;;;5.00;93.80;;;;;;5092827;28;20212;-67
2023/02/08 11:42:02;;;;;;;7.70;4.90;;;5.30;94.10;;;;;;5092604;28;20212;-67
2023/02/08 11:44:32;;;;;;;5.47;4.43;;;5.60;93.60;;;;;;5092468;28;20204;-67
2023/02/08 11:47:02;;;;;;;7.07;4.80;;;5.70;93.00;;;;;;5092632;28;20613;-68
2023/02/08 11:49:35;;;;;;;7.67;4.83;;;5.70;93.40;;;;;;5093215;28;20208;-68
2023/02/08 11:52:02;;;;;;;7.87;4.67;;;5.80;93.50;;;;;;5092557;28;20763;-67
2023/02/08 11:54:37;;;;;;;6.60;4.67;;;5.80;92.70;;;;;;5092971;28;20204;-68
2023/02/08 11:57:12;;;;;;;7.00;5.00;;;5.90;92.70;;;;;;5092328;28;20224;-68
2023/02/08 11:59:38;;;;;;;6.63;4.70;;;5.80;93.10;;;;;;5092976;28;20207;-66
2023/02/08 12:02:34;;;;;;;6.57;4.67;;;5.80;92.80;;;;;;5092528;28;20680;-68
2023/02/08 12:05:01;;;;;;;6.40;4.60;;;5.90;93.00;;;;;;5092652;28;20204;-67
2023/02/08 12:08:00;;;;;;;8.43;5.50;;;5.90;92.80;;;;;;5092159;28;20293;-68
2023/02/08 12:10:50;;;;;;;9.63;4.97;;;6.10;93.10;;;;;;5092304;28;20211;-67
2023/02/08 12:13:39;;;;;;;8.03;5.00;;;6.20;92.90;;;;;;5092424;28;20231;-67
2023/02/08 12:16:13;;;;;;;7.27;5.13;;;6.30;92.90;;;;;;5092673;28;20228;-67
2023/02/08 12:18:53;;;;;;;7.63;5.27;;;6.30;92.80;;;;;;5092443;28;20215;-68
2023/02/08 12:21:25;;;;;;;7.90;4.57;;;6.40;92.90;;;;;;5091977;28;20207;-68
2023/02/08 12:23:55;;;;;;;7.70;5.27;;;6.50;92.60;;;;;;5092162;28;20220;-67
2023/02/08 12:26:47;;;;;;;6.83;5.03;;;6.50;92.40;;;;;;5091773;28;20228;-67
2023/02/08 12:29:27;;;;;;;6.40;4.67;;;6.40;92.10;;;;;;5092182;28;20200;-68
2023/02/08 12:32:08;;;;;;;8.73;4.90;;;6.40;92.20;;;;;;5091946;28;20629;-68
2023/02/08 12:34:49;;;;;;;7.60;5.33;;;6.40;92.20;;;;;;5091532;28;20204;-69
2023/02/08 12:43:30;;;;;;;6.57;4.93;;;6.60;92.00;;;;;;5091538;28;20660;-69
2023/02/08 12:46:22;;;;;;;7.17;4.80;;;6.60;91.40;;;;;;5091651;28;20224;-69
2023/02/08 12:49:04;;;;;;;7.10;4.80;;;6.60;91.60;;;;;;5091598;28;20744;-70
2023/02/08 12:51:40;;;;;;;6.07;4.53;;;6.50;91.30;;;;;;5091687;28;20212;-69
2023/02/08 12:54:12;;;;;;;7.13;4.27;;;6.50;91.30;;;;;;5092274;28;20203;-70
2023/02/08 12:56:44;;;;;;;6.67;4.73;;;6.50;91.10;;;;;;5091580;28;20232;-69
2023/02/08 12:59:19;;;;;;;6.37;4.43;;;6.30;91.00;;;;;;5092863;28;20230;-70
2023/02/08 13:01:50;;;;;;;6.77;4.57;;;6.40;91.60;;;;;;5093199;28;20203;-69
2023/02/08 13:04:22;;;;;;;8.97;4.97;;;6.40;91.40;;;;;;5093255;28;20271;-69